createdAt,value
2022-10-31T00:02:08.770Z,20.80
2022-10-31T00:04:40.133Z,19.50
2022-10-31T00:07:11.045Z,18.50
2022-10-31T00:09:41.901Z,18.50
2022-10-31T00:12:12.695Z,19.00
2022-10-31T00:14:43.631Z,17.60
2022-10-31T00:17:14.429Z,17.20
2022-10-31T00:19:45.262Z,17.20
2022-10-31T00:22:16.254Z,18.20
2022-10-31T00:24:47.242Z,17.80
2022-10-31T00:27:18.431Z,18.60
2022-10-31T00:29:50.539Z,17.30
2022-10-31T00:32:23.505Z,17.50
2022-10-31T00:34:54.339Z,17.70
2022-10-31T00:37:25.204Z,17.60
2022-10-31T00:39:55.953Z,17.30
2022-10-31T00:42:27.138Z,18.90
2022-10-31T00:44:57.954Z,17.80
2022-10-31T00:47:28.758Z,16.60
2022-10-31T00:49:59.619Z,17.50
2022-10-31T00:52:30.558Z,17.70
2022-10-31T00:55:01.980Z,16.00
2022-10-31T00:57:33.736Z,16.20
2022-10-31T01:00:04.962Z,15.30
2022-10-31T01:02:35.940Z,15.80
2022-10-31T01:05:07.509Z,14.70
2022-10-31T01:07:41.311Z,14.50
2022-10-31T01:10:14.055Z,13.90
2022-10-31T01:12:46.947Z,13.80
2022-10-31T01:15:20.901Z,13.50
2022-10-31T01:17:52.203Z,12.70
2022-10-31T01:20:23.178Z,14.30
2022-10-31T01:22:53.998Z,14.60
2022-10-31T01:25:27.809Z,13.30
2022-10-31T01:27:59.040Z,13.80
2022-10-31T01:30:30.809Z,14.30
2022-10-31T01:33:02.203Z,13.50
2022-10-31T01:35:33.803Z,15.00
2022-10-31T01:38:04.983Z,13.70
2022-10-31T01:40:35.921Z,14.20
2022-10-31T01:43:06.852Z,13.20
2022-10-31T01:45:38.103Z,13.80
2022-10-31T01:48:14.370Z,12.90
2022-10-31T01:50:49.995Z,12.60
2022-10-31T01:53:25.952Z,12.80
2022-10-31T01:55:58.159Z,13.70
2022-10-31T01:58:32.568Z,13.30
2022-10-31T02:01:08.074Z,14.40
2022-10-31T02:03:40.026Z,14.20
2022-10-31T02:06:19.221Z,15.40
2022-10-31T02:08:50.306Z,14.70
2022-10-31T02:11:21.198Z,14.30
2022-10-31T02:13:52.204Z,15.20
2022-10-31T02:16:23.074Z,14.60
2022-10-31T02:18:55.436Z,15.50
2022-10-31T02:21:33.587Z,16.00
2022-10-31T02:24:40.419Z,15.60
2022-10-31T02:27:20.149Z,16.60
2022-10-31T02:30:11.046Z,17.20
2022-10-31T02:33:00.789Z,17.00
2022-10-31T02:35:47.768Z,16.80
2022-10-31T02:38:29.279Z,16.10
2022-10-31T02:41:08.505Z,16.50
2022-10-31T02:43:58.323Z,17.00
2022-10-31T02:46:35.031Z,17.30
2022-10-31T02:49:13.051Z,18.00
2022-10-31T02:51:45.549Z,17.30
2022-10-31T02:54:28.671Z,16.30
2022-10-31T02:57:04.604Z,15.10
2022-10-31T02:59:39.174Z,15.70
2022-10-31T03:02:25.215Z,15.40
2022-10-31T03:05:24.342Z,15.90
2022-10-31T03:08:04.695Z,17.10
2022-10-31T03:10:43.560Z,16.40
2022-10-31T03:15:58.967Z,15.80
2022-10-31T03:18:34.362Z,16.40
2022-10-31T03:21:12.384Z,15.90
2022-10-31T03:23:45.319Z,16.10
2022-10-31T03:26:25.050Z,15.90
2022-10-31T03:28:59.510Z,16.80
2022-10-31T03:31:34.331Z,16.40
2022-10-31T03:34:07.189Z,16.00
2022-10-31T03:36:41.145Z,16.20
2022-10-31T03:39:15.813Z,15.00
2022-10-31T03:41:51.412Z,14.50
2022-10-31T03:47:01.780Z,13.20
2022-10-31T03:49:34.239Z,15.40
2022-10-31T03:52:13.424Z,15.30
2022-10-31T03:54:47.071Z,14.50
2022-10-31T03:57:30.112Z,14.90
2022-10-31T04:00:06.339Z,15.40
2022-10-31T04:02:44.796Z,15.20
2022-10-31T04:05:20.210Z,16.00
2022-10-31T04:07:54.063Z,14.70
2022-10-31T04:10:31.810Z,15.40
2022-10-31T04:13:09.365Z,15.60
2022-10-31T04:15:50.381Z,15.20
2022-10-31T04:18:21.695Z,15.10
2022-10-31T04:21:01.373Z,15.80
2022-10-31T04:23:32.666Z,15.40
2022-10-31T04:26:04.755Z,15.50
2022-10-31T04:28:35.789Z,14.50
2022-10-31T04:31:07.353Z,14.20
2022-10-31T04:33:39.187Z,24.20
2022-10-31T04:36:10.949Z,20.30
2022-10-31T04:38:41.988Z,15.80
2022-10-31T04:41:30.478Z,15.50
2022-10-31T04:44:07.162Z,14.60
2022-10-31T04:46:38.001Z,15.00
2022-10-31T04:49:09.240Z,15.20
2022-10-31T04:51:40.295Z,15.20
2022-10-31T04:54:12.485Z,15.30
2022-10-31T04:57:06.380Z,14.20
2022-10-31T04:59:37.263Z,14.50
2022-10-31T05:02:08.231Z,14.30
2022-10-31T05:04:47.055Z,15.70
2022-10-31T05:07:17.944Z,14.00
2022-10-31T05:09:48.779Z,25.50
2022-10-31T05:12:19.609Z,30.20
2022-10-31T05:15:11.216Z,31.40
2022-10-31T05:18:01.567Z,31.40
2022-10-31T05:20:58.980Z,24.20
2022-10-31T05:23:40.334Z,25.80
2022-10-31T05:26:14.555Z,21.30
2022-10-31T05:28:45.646Z,18.80
2022-10-31T05:31:17.281Z,17.70
2022-10-31T05:33:48.563Z,18.50
2022-10-31T05:36:39.453Z,19.30
2022-10-31T05:39:20.063Z,20.60
2022-10-31T05:41:52.904Z,26.60
2022-10-31T05:44:29.609Z,25.40
2022-10-31T05:47:19.025Z,20.50
2022-10-31T05:50:16.051Z,17.90
2022-10-31T05:52:58.616Z,20.70
2022-10-31T05:55:34.948Z,21.00
2022-10-31T05:58:14.020Z,22.90
2022-10-31T06:00:49.027Z,24.00
2022-10-31T06:03:19.916Z,23.30
2022-10-31T06:06:11.654Z,23.10
2022-10-31T06:08:45.623Z,24.90
2022-10-31T06:11:19.517Z,26.00
2022-10-31T06:14:08.851Z,26.30
2022-10-31T06:16:49.461Z,25.70
2022-10-31T06:19:44.118Z,27.30
2022-10-31T06:22:16.559Z,24.50
2022-10-31T06:24:47.624Z,24.20
2022-10-31T06:27:31.241Z,24.80
2022-10-31T06:30:03.993Z,25.50
2022-10-31T06:32:36.445Z,25.20
2022-10-31T06:35:08.685Z,26.90
2022-10-31T06:37:44.370Z,25.50
2022-10-31T06:40:31.104Z,23.80
2022-10-31T06:43:22.709Z,23.60
2022-10-31T06:45:55.052Z,25.60
2022-10-31T06:48:29.683Z,26.70
2022-10-31T06:51:32.722Z,25.10
2022-10-31T06:54:03.904Z,23.60
2022-10-31T06:56:35.464Z,23.50
2022-10-31T06:59:07.939Z,23.10
2022-10-31T07:02:09.758Z,22.40
2022-10-31T07:04:41.891Z,21.40
2022-10-31T07:07:12.972Z,19.00
2022-10-31T07:09:43.808Z,18.90
2022-10-31T07:12:16.540Z,18.20
2022-10-31T07:14:52.430Z,17.80
2022-10-31T07:17:29.893Z,16.30
2022-10-31T07:20:04.643Z,15.40
2022-10-31T07:22:40.166Z,13.30
2022-10-31T07:25:13.873Z,13.60
2022-10-31T07:28:04.697Z,13.70
2022-10-31T07:30:43.708Z,13.20
2022-10-31T07:33:14.740Z,11.90
2022-10-31T07:36:17.992Z,12.10
2022-10-31T07:39:10.847Z,11.90
2022-10-31T07:42:03.452Z,12.30
2022-10-31T07:44:57.739Z,12.00
2022-10-31T07:48:19.119Z,11.60
2022-10-31T07:51:29.438Z,20.80
2022-10-31T07:54:39.958Z,22.10
2022-10-31T07:57:34.820Z,20.90
2022-10-31T08:00:29.739Z,23.80
2022-10-31T08:03:23.167Z,23.20
2022-10-31T08:06:28.092Z,22.90
2022-10-31T08:09:58.647Z,21.30
2022-10-31T08:13:02.940Z,20.30
2022-10-31T08:15:55.391Z,20.40
2022-10-31T08:18:49.591Z,21.20
2022-10-31T08:21:42.171Z,22.00
2022-10-31T08:24:37.112Z,19.90
2022-10-31T08:27:29.362Z,18.10
2022-10-31T08:30:23.629Z,19.20
2022-10-31T08:33:35.448Z,17.40
2022-10-31T08:36:44.388Z,15.50
2022-10-31T08:39:40.843Z,13.60
2022-10-31T08:42:37.980Z,12.30
2022-10-31T08:45:30.839Z,11.60
2022-10-31T08:48:23.157Z,11.30
2022-10-31T08:51:15.203Z,11.90
2022-10-31T08:53:48.790Z,11.20
2022-10-31T08:56:59.235Z,10.80
2022-10-31T09:00:11.448Z,11.20
2022-10-31T09:03:26.306Z,11.70
2022-10-31T09:06:18.103Z,10.50
2022-10-31T09:09:13.370Z,11.60
2022-10-31T09:12:05.739Z,14.00
2022-10-31T09:15:16.035Z,13.60
2022-10-31T09:18:37.300Z,15.10
2022-10-31T09:21:29.385Z,14.00
2022-10-31T09:24:24.357Z,14.20
2022-10-31T09:27:18.767Z,14.00
2022-10-31T09:30:14.214Z,13.30
2022-10-31T09:33:11.951Z,13.40
2022-10-31T09:36:06.672Z,14.20
2022-10-31T09:38:59.854Z,14.20
2022-10-31T09:42:04.497Z,12.60
2022-10-31T09:45:06.301Z,12.70
2022-10-31T09:48:26.857Z,14.40
2022-10-31T09:51:47.938Z,13.10
2022-10-31T09:54:55.688Z,15.00
2022-10-31T09:57:49.232Z,17.80
2022-10-31T10:00:42.237Z,15.20
2022-10-31T10:03:38.648Z,16.90
2022-10-31T10:06:45.639Z,15.60
2022-10-31T10:10:19.365Z,13.50
2022-10-31T10:13:54.386Z,13.80
2022-10-31T10:17:00.962Z,15.60
2022-10-31T10:20:20.962Z,14.10
2022-10-31T10:23:32.433Z,14.70
2022-10-31T10:29:41.867Z,14.40
2022-10-31T10:32:45.542Z,14.20
2022-10-31T10:38:38.828Z,13.30
2022-10-31T10:41:35.040Z,13.40
2022-10-31T10:44:44.342Z,13.10
2022-10-31T10:47:43.712Z,14.90
2022-10-31T10:50:41.627Z,15.10
2022-10-31T10:54:03.161Z,14.30
2022-10-31T10:57:10.708Z,15.70
2022-10-31T11:00:13.389Z,14.70
2022-10-31T11:03:06.073Z,14.00
2022-10-31T11:06:02.880Z,15.10
2022-10-31T11:08:54.909Z,17.20
2022-10-31T11:12:02.931Z,15.60
2022-10-31T11:15:01.486Z,17.60
2022-10-31T11:17:58.465Z,19.00
2022-10-31T11:20:55.644Z,19.00
2022-10-31T11:23:47.823Z,19.20
2022-10-31T11:26:41.344Z,18.00
2022-10-31T11:29:34.458Z,19.20
2022-10-31T11:32:30.946Z,19.00
2022-10-31T11:35:24.972Z,20.10
2022-10-31T11:38:21.596Z,20.30
2022-10-31T11:41:19.340Z,21.10
2022-10-31T11:44:20.485Z,23.00
2022-10-31T11:47:19.956Z,21.80
2022-10-31T11:50:28.501Z,22.00
2022-10-31T11:53:22.938Z,21.50
2022-10-31T11:56:08.283Z,20.10
2022-10-31T11:58:39.862Z,23.50
2022-10-31T12:01:27.700Z,20.90
2022-10-31T12:04:09.140Z,18.50
2022-10-31T12:06:42.231Z,19.90
2022-10-31T12:09:25.000Z,19.50
2022-10-31T12:12:20.638Z,19.90
2022-10-31T12:15:07.299Z,19.60
2022-10-31T12:17:47.788Z,21.90
2022-10-31T12:20:28.096Z,19.80
2022-10-31T12:23:07.894Z,20.20
2022-10-31T12:25:51.582Z,19.10
2022-10-31T12:28:55.118Z,22.10
2022-10-31T12:31:45.993Z,18.80
2022-10-31T12:34:52.966Z,19.30
2022-10-31T12:38:06.510Z,17.70
2022-10-31T12:41:12.633Z,20.40
2022-10-31T12:44:13.344Z,18.10
2022-10-31T12:47:20.909Z,20.50
2022-10-31T12:50:29.990Z,18.00
2022-10-31T12:53:26.262Z,18.40
2022-10-31T12:56:10.607Z,18.10
2022-10-31T12:58:54.191Z,17.60
2022-10-31T13:01:45.385Z,18.30
2022-10-31T13:04:21.879Z,18.00
2022-10-31T13:06:57.503Z,19.40
2022-10-31T13:09:35.756Z,20.20
2022-10-31T13:12:12.899Z,26.80
2022-10-31T13:14:48.805Z,23.30
2022-10-31T13:17:28.435Z,26.50
2022-10-31T13:20:14.505Z,23.90
2022-10-31T13:22:49.686Z,24.70
2022-10-31T13:25:26.059Z,23.40
2022-10-31T13:28:01.748Z,23.20
2022-10-31T13:30:38.866Z,22.20
2022-10-31T13:33:19.839Z,24.30
2022-10-31T13:36:00.189Z,22.70
2022-10-31T13:38:39.314Z,21.80
2022-10-31T13:41:32.321Z,22.90
2022-10-31T13:44:08.535Z,22.20
2022-10-31T13:46:44.515Z,23.00
2022-10-31T13:49:42.876Z,23.50
2022-10-31T13:52:27.059Z,22.60
2022-10-31T13:54:58.202Z,23.90
2022-10-31T13:57:35.256Z,25.50
2022-10-31T14:00:24.051Z,24.90
2022-10-31T14:02:57.830Z,23.80
2022-10-31T14:05:32.357Z,25.40
2022-10-31T14:08:06.185Z,23.00
2022-10-31T14:10:40.186Z,21.90
2022-10-31T14:13:17.780Z,22.30
2022-10-31T14:16:01.003Z,26.30
2022-10-31T14:18:36.965Z,24.90
2022-10-31T14:21:29.402Z,22.10
2022-10-31T14:24:01.553Z,24.80
2022-10-31T14:26:38.393Z,23.40
2022-10-31T14:29:25.810Z,23.60
2022-10-31T14:32:00.618Z,25.40
2022-10-31T14:34:35.969Z,26.50
2022-10-31T14:37:20.675Z,27.80
2022-10-31T14:40:06.833Z,25.90
2022-10-31T14:42:54.941Z,27.90
2022-10-31T14:45:38.010Z,28.30
2022-10-31T14:48:29.081Z,28.00
2022-10-31T14:51:02.220Z,26.90
2022-10-31T14:53:36.698Z,27.00
2022-10-31T14:56:13.679Z,27.80
2022-10-31T14:58:47.952Z,27.10
2022-10-31T15:01:25.148Z,23.20
2022-10-31T15:06:55.019Z,25.50
2022-10-31T15:09:29.959Z,24.90
2022-10-31T15:14:32.941Z,26.70
2022-10-31T15:17:07.166Z,27.30
2022-10-31T15:19:38.850Z,26.80
2022-10-31T15:22:16.472Z,28.70
2022-10-31T15:24:48.222Z,29.60
2022-10-31T15:27:20.608Z,28.50
2022-10-31T15:29:56.625Z,28.80
2022-10-31T15:32:28.931Z,27.00
2022-10-31T15:35:00.180Z,28.80
2022-10-31T15:37:31.421Z,27.30
2022-10-31T15:40:16.885Z,30.40
2022-10-31T15:42:52.912Z,31.40
2022-10-31T15:45:27.879Z,29.80
2022-10-31T15:48:01.882Z,28.70
2022-10-31T15:50:38.331Z,31.40
2022-10-31T15:53:16.672Z,29.10
2022-10-31T15:55:55.391Z,30.50
2022-10-31T15:58:28.094Z,28.60
2022-10-31T16:01:04.658Z,31.40
2022-10-31T16:03:37.342Z,30.70
2022-10-31T16:06:21.666Z,30.80
2022-10-31T16:08:53.474Z,28.10
2022-10-31T16:11:32.062Z,29.00
2022-10-31T16:14:07.009Z,31.10
2022-10-31T16:16:47.520Z,30.60
2022-10-31T16:19:22.902Z,29.40
2022-10-31T16:21:57.406Z,28.80
2022-10-31T16:24:31.728Z,30.40
2022-10-31T16:27:07.819Z,30.10
2022-10-31T16:29:44.483Z,29.80
2022-10-31T16:32:36.974Z,28.20
2022-10-31T16:35:30.393Z,29.40
2022-10-31T16:38:01.344Z,31.00
2022-10-31T16:40:33.100Z,29.70
2022-10-31T16:43:04.568Z,29.60
2022-10-31T16:45:37.129Z,29.40
2022-10-31T16:48:12.984Z,31.70
2022-10-31T16:50:47.406Z,30.20
2022-10-31T16:53:18.957Z,30.20
2022-10-31T16:55:56.437Z,31.10
2022-10-31T16:58:30.708Z,26.00
2022-10-31T17:01:02.384Z,25.50
2022-10-31T17:03:33.395Z,28.40
2022-10-31T17:06:04.524Z,30.00
2022-10-31T17:08:35.455Z,30.40
2022-10-31T17:11:07.154Z,32.50
2022-10-31T17:13:38.327Z,30.70
2022-10-31T17:16:09.925Z,30.40
2022-10-31T17:18:40.756Z,27.10
2022-10-31T17:21:20.582Z,28.30
2022-10-31T17:23:51.869Z,31.40
2022-10-31T17:26:23.246Z,31.90
2022-10-31T17:28:54.376Z,31.00
2022-10-31T17:31:29.457Z,35.50
2022-10-31T17:36:35.545Z,32.50
2022-10-31T17:39:09.709Z,34.50
2022-10-31T17:41:40.701Z,35.00
2022-10-31T17:44:14.200Z,34.20
2022-10-31T17:46:45.162Z,35.40
2022-10-31T17:49:17.639Z,32.80
2022-10-31T17:51:49.994Z,33.90
2022-10-31T17:54:23.295Z,31.60
2022-10-31T17:56:55.780Z,32.80
2022-10-31T17:59:30.218Z,29.10
2022-10-31T18:02:02.056Z,30.10
2022-10-31T18:04:33.262Z,27.90
2022-10-31T18:07:05.057Z,28.90
2022-10-31T18:09:36.891Z,28.20
2022-10-31T18:12:08.576Z,26.50
2022-10-31T18:14:42.475Z,27.30
2022-10-31T18:17:16.104Z,26.40
2022-10-31T18:19:47.159Z,26.60
2022-10-31T18:22:18.279Z,26.00
2022-10-31T18:25:00.863Z,26.40
2022-10-31T18:27:32.914Z,24.20
2022-10-31T18:30:04.053Z,24.70
2022-10-31T18:32:36.505Z,27.80
2022-10-31T18:35:08.590Z,24.40
2022-10-31T18:37:40.025Z,26.20
2022-10-31T18:40:12.350Z,26.10
2022-10-31T18:42:43.462Z,25.70
2022-10-31T18:45:32.581Z,25.00
2022-10-31T18:48:06.098Z,24.10
2022-10-31T18:50:40.254Z,28.80
2022-10-31T18:53:11.337Z,29.70
2022-10-31T18:55:47.443Z,26.90
2022-10-31T18:58:23.257Z,27.10
2022-10-31T19:00:54.760Z,23.40
2022-10-31T19:03:26.994Z,27.30
2022-10-31T19:05:59.270Z,27.70
2022-10-31T19:08:30.748Z,28.00
2022-10-31T19:11:08.868Z,25.20
2022-10-31T19:13:41.671Z,25.50
2022-10-31T19:16:15.400Z,24.50
2022-10-31T19:18:47.871Z,23.00
2022-10-31T19:21:19.650Z,23.10
2022-10-31T19:23:52.882Z,22.90
2022-10-31T19:26:24.834Z,22.60
2022-10-31T19:28:56.593Z,23.90
2022-10-31T19:31:27.634Z,23.50
2022-10-31T19:33:58.840Z,23.80
2022-10-31T19:36:30.340Z,23.50
2022-10-31T19:39:01.767Z,23.40
2022-10-31T19:41:33.009Z,21.20
2022-10-31T19:44:04.059Z,20.20
2022-10-31T19:46:53.375Z,21.00
2022-10-31T19:49:24.711Z,21.40
2022-10-31T19:51:55.624Z,21.00
2022-10-31T19:54:26.633Z,20.40
2022-10-31T19:56:57.504Z,22.70
2022-10-31T19:59:28.649Z,19.90
2022-10-31T20:01:59.858Z,25.30
2022-10-31T20:04:33.704Z,21.90
2022-10-31T20:07:05.044Z,28.20
2022-10-31T20:09:36.907Z,23.00
2022-10-31T20:12:08.666Z,21.50
2022-10-31T20:14:39.922Z,21.40
2022-10-31T20:17:11.067Z,20.90
2022-10-31T20:19:43.422Z,19.50
2022-10-31T20:22:15.316Z,21.70
2022-10-31T20:24:46.340Z,22.80
2022-10-31T20:27:17.438Z,24.00
2022-10-31T20:29:49.653Z,17.60
2022-10-31T20:32:23.684Z,22.80
2022-10-31T20:34:54.639Z,22.70
2022-10-31T20:37:25.598Z,22.60
2022-10-31T20:39:56.809Z,24.90
2022-10-31T20:42:31.144Z,19.60
2022-10-31T20:45:02.608Z,21.80
2022-10-31T20:47:34.038Z,23.80
2022-10-31T20:50:09.508Z,23.00
2022-10-31T20:52:45.349Z,21.60
2022-10-31T20:55:17.842Z,21.00
2022-10-31T20:57:49.231Z,20.70
2022-10-31T21:00:21.651Z,21.30
2022-10-31T21:02:53.799Z,23.10
2022-10-31T21:05:28.389Z,20.60
2022-10-31T21:08:02.115Z,22.10
2022-10-31T21:10:36.758Z,22.90
2022-10-31T21:13:07.979Z,22.20
2022-10-31T21:15:39.229Z,24.00
2022-10-31T21:18:10.542Z,23.40
2022-10-31T21:20:47.173Z,23.20
2022-10-31T21:23:21.815Z,23.50
2022-10-31T21:25:54.473Z,23.00
2022-10-31T21:28:25.835Z,22.40
2022-10-31T21:30:57.682Z,22.90
2022-10-31T21:33:29.323Z,23.70
2022-10-31T21:36:00.276Z,25.20
2022-10-31T21:38:31.733Z,23.90
2022-10-31T21:41:04.230Z,21.60
2022-10-31T21:43:37.906Z,23.80
2022-10-31T21:46:10.869Z,24.30
2022-10-31T21:48:43.646Z,23.00
2022-10-31T21:51:16.613Z,23.50
2022-10-31T21:54:05.307Z,22.50
2022-10-31T21:56:36.868Z,22.60
2022-10-31T21:59:08.284Z,22.10
2022-10-31T22:01:39.897Z,23.30
2022-10-31T22:04:11.338Z,22.40
2022-10-31T22:06:42.541Z,24.80
2022-10-31T22:09:15.861Z,23.10
2022-10-31T22:11:47.368Z,25.10
2022-10-31T22:14:18.512Z,24.50
2022-10-31T22:16:49.570Z,22.80
2022-10-31T22:19:20.740Z,22.60
2022-10-31T22:21:51.817Z,22.10
2022-10-31T22:24:22.901Z,22.70
2022-10-31T22:26:53.797Z,22.80
2022-10-31T22:29:24.729Z,23.80
2022-10-31T22:31:59.629Z,22.20
2022-10-31T22:34:32.599Z,22.60
2022-10-31T22:37:03.526Z,24.00
2022-10-31T22:39:34.620Z,22.80
2022-10-31T22:42:05.718Z,22.80
2022-10-31T22:44:36.577Z,23.00
2022-10-31T22:47:07.611Z,20.70
2022-10-31T22:49:38.663Z,21.90
2022-10-31T22:52:09.987Z,21.70
2022-10-31T22:54:41.058Z,22.00
2022-10-31T22:57:12.400Z,20.60
2022-10-31T22:59:43.602Z,19.30
2022-10-31T23:02:14.706Z,20.70
2022-10-31T23:04:45.812Z,21.40
2022-10-31T23:07:21.611Z,22.40
2022-10-31T23:09:56.701Z,20.80
2022-10-31T23:12:50.457Z,21.90
2022-10-31T23:15:21.409Z,23.70
2022-10-31T23:17:52.568Z,23.20
2022-10-31T23:20:23.755Z,22.70
2022-10-31T23:22:54.795Z,23.20
2022-10-31T23:25:43.626Z,21.60
2022-10-31T23:28:14.571Z,21.90
2022-10-31T23:30:48.001Z,21.10
2022-10-31T23:33:18.926Z,22.00
2022-10-31T23:35:50.084Z,21.60
2022-10-31T23:38:21.369Z,22.00
2022-10-31T23:40:52.393Z,21.30
2022-10-31T23:43:23.252Z,21.30
2022-10-31T23:45:54.397Z,20.80
2022-10-31T23:48:25.189Z,21.30
2022-10-31T23:50:56.299Z,21.40
2022-10-31T23:53:27.594Z,20.70
2022-10-31T23:55:58.781Z,20.20
2022-10-31T23:58:29.589Z,20.00
